createdAt,value
2018-10-11T00:01:28.784Z,26.87
2018-10-11T00:03:57.143Z,26.00
2018-10-11T00:06:25.464Z,27.27
2018-10-11T00:08:53.835Z,33.80
2018-10-11T00:11:22.148Z,28.07
2018-10-11T00:13:51.740Z,30.60
2018-10-11T00:16:20.052Z,26.83
2018-10-11T00:18:48.436Z,28.13
2018-10-11T00:21:16.689Z,27.17
2018-10-11T00:23:45.002Z,27.67
2018-10-11T00:26:13.374Z,28.47
2018-10-11T00:28:41.797Z,30.87
2018-10-11T00:31:10.163Z,29.40
2018-10-11T00:33:38.517Z,28.00
2018-10-11T00:36:07.144Z,28.23
2018-10-11T00:38:35.509Z,26.53
2018-10-11T00:41:03.840Z,27.90
2018-10-11T00:43:32.265Z,27.67
2018-10-11T00:46:00.620Z,27.43
2018-10-11T00:48:28.964Z,28.03
2018-10-11T00:50:57.394Z,30.80
2018-10-11T00:53:26.097Z,29.10
2018-10-11T00:55:54.412Z,28.77
2018-10-11T00:58:22.786Z,28.43
2018-10-11T01:00:51.250Z,26.93
2018-10-11T01:03:19.670Z,28.13
2018-10-11T01:05:48.007Z,27.47
2018-10-11T01:08:16.525Z,26.13
2018-10-11T01:10:44.949Z,26.57
2018-10-11T01:13:13.230Z,27.33
2018-10-11T01:15:41.491Z,26.37
2018-10-11T01:18:09.788Z,26.47
2018-10-11T01:20:38.124Z,27.97
2018-10-11T01:23:06.546Z,27.23
2018-10-11T01:25:34.918Z,29.23
2018-10-11T01:28:03.373Z,28.13
2018-10-11T01:30:31.774Z,28.03
2018-10-11T01:33:00.058Z,28.53
2018-10-11T01:35:28.591Z,30.13
2018-10-11T01:37:56.887Z,30.27
2018-10-11T01:40:25.513Z,31.70
2018-10-11T01:43:08.632Z,32.07
2018-10-11T01:45:36.984Z,31.80
2018-10-11T01:48:05.425Z,31.13
2018-10-11T01:50:33.737Z,30.47
2018-10-11T01:53:05.238Z,30.90
2018-10-11T01:55:33.882Z,30.60
2018-10-11T01:58:02.224Z,30.90
2018-10-11T02:00:30.613Z,32.17
2018-10-11T02:02:59.627Z,31.40
2018-10-11T02:05:28.766Z,29.53
2018-10-11T02:07:58.185Z,29.70
2018-10-11T02:10:27.648Z,29.23
2018-10-11T02:12:56.539Z,29.07
2018-10-11T02:15:25.405Z,28.07
2018-10-11T02:17:53.698Z,28.53
2018-10-11T02:20:21.974Z,30.33
2018-10-11T02:22:50.310Z,30.07
2018-10-11T02:25:18.617Z,31.53
2018-10-11T02:27:47.030Z,30.27
2018-10-11T02:30:15.358Z,30.60
2018-10-11T02:32:43.903Z,29.93
2018-10-11T02:35:12.685Z,30.77
2018-10-11T02:37:41.432Z,30.37
2018-10-11T02:40:09.854Z,29.97
2018-10-11T02:42:38.173Z,31.07
2018-10-11T02:45:06.693Z,33.23
2018-10-11T02:47:35.187Z,34.47
2018-10-11T02:50:03.696Z,33.40
2018-10-11T02:52:31.994Z,33.87
2018-10-11T02:55:00.300Z,31.40
2018-10-11T02:57:39.885Z,31.03
2018-10-11T03:00:08.246Z,32.67
2018-10-11T03:02:37.904Z,32.23
2018-10-11T03:05:16.695Z,31.53
2018-10-11T03:07:45.313Z,32.03
2018-10-11T03:10:13.754Z,33.17
2018-10-11T03:12:42.085Z,34.17
2018-10-11T03:15:10.460Z,32.83
2018-10-11T03:17:38.744Z,32.07
2018-10-11T03:20:07.138Z,33.53
2018-10-11T03:22:35.564Z,33.33
2018-10-11T03:25:03.941Z,32.60
2018-10-11T03:27:32.271Z,34.80
2018-10-11T03:30:00.662Z,34.90
2018-10-11T03:32:29.000Z,34.90
2018-10-11T03:34:57.428Z,35.57
2018-10-11T03:37:25.905Z,34.50
2018-10-11T03:39:54.236Z,36.37
2018-10-11T03:42:22.543Z,35.03
2018-10-11T03:44:50.872Z,35.60
2018-10-11T03:47:19.276Z,35.17
2018-10-11T03:49:47.578Z,36.53
2018-10-11T03:52:15.880Z,35.37
2018-10-11T03:54:44.321Z,36.20
2018-10-11T03:57:12.621Z,34.97
2018-10-11T03:59:41.110Z,36.50
2018-10-11T04:02:09.570Z,37.30
2018-10-11T04:04:37.904Z,36.27
2018-10-11T04:07:06.401Z,38.70
2018-10-11T04:09:34.819Z,42.70
2018-10-11T04:12:03.092Z,42.60
2018-10-11T04:14:31.415Z,41.33
2018-10-11T04:16:59.717Z,43.30
2018-10-11T04:19:28.048Z,42.10
2018-10-11T04:21:56.544Z,40.57
2018-10-11T04:24:24.870Z,40.93
2018-10-11T04:26:53.186Z,40.03
2018-10-11T04:29:21.590Z,40.63
2018-10-11T04:31:50.835Z,40.70
2018-10-11T04:34:19.144Z,41.10
2018-10-11T04:36:47.588Z,46.23
2018-10-11T04:39:15.848Z,41.50
2018-10-11T04:41:44.229Z,39.20
2018-10-11T04:44:12.527Z,37.90
2018-10-11T04:46:41.028Z,37.40
2018-10-11T04:49:09.492Z,37.80
2018-10-11T04:51:38.010Z,38.13
2018-10-11T04:54:06.280Z,38.87
2018-10-11T04:56:34.723Z,40.33
2018-10-11T04:59:03.070Z,40.13
2018-10-11T05:01:31.391Z,38.63
2018-10-11T05:03:59.667Z,39.43
2018-10-11T05:06:27.955Z,36.87
2018-10-11T05:08:56.452Z,36.60
2018-10-11T05:11:24.900Z,36.97
2018-10-11T05:13:53.831Z,37.40
2018-10-11T05:16:22.342Z,38.77
2018-10-11T05:18:56.247Z,38.33
2018-10-11T05:21:24.798Z,37.93
2018-10-11T05:23:53.319Z,39.33
2018-10-11T05:26:21.782Z,39.80
2018-10-11T05:28:50.088Z,38.90
2018-10-11T05:31:18.580Z,37.93
2018-10-11T05:33:46.954Z,38.57
2018-10-11T05:36:15.599Z,37.30
2018-10-11T05:38:44.538Z,36.43
2018-10-11T05:41:13.180Z,37.73
2018-10-11T05:43:41.516Z,36.00
2018-10-11T05:46:13.773Z,34.97
2018-10-11T05:48:42.157Z,35.77
2018-10-11T05:51:10.455Z,36.73
2018-10-11T05:53:39.417Z,33.87
2018-10-11T05:56:07.821Z,34.30
2018-10-11T05:58:36.344Z,33.03
2018-10-11T06:01:04.834Z,32.03
2018-10-11T06:03:33.155Z,34.10
2018-10-11T06:06:01.498Z,34.30
2018-10-11T06:08:29.863Z,34.23
2018-10-11T06:10:58.239Z,35.00
2018-10-11T06:13:26.579Z,35.37
2018-10-11T06:15:54.981Z,35.37
2018-10-11T06:18:23.372Z,35.10
2018-10-11T06:20:51.808Z,36.13
2018-10-11T06:23:20.127Z,38.57
2018-10-11T06:25:48.460Z,39.70
2018-10-11T06:28:16.841Z,50.27
2018-10-11T06:30:45.275Z,40.20
2018-10-11T06:33:13.664Z,37.53
2018-10-11T06:35:42.095Z,36.90
2018-10-11T06:38:10.452Z,35.70
2018-10-11T06:40:38.896Z,36.03
2018-10-11T06:43:07.495Z,33.30
2018-10-11T06:45:35.916Z,37.47
2018-10-11T06:48:06.840Z,36.97
2018-10-11T06:50:35.326Z,37.40
2018-10-11T06:53:04.066Z,37.83
2018-10-11T06:55:32.381Z,36.67
2018-10-11T06:58:00.782Z,37.00
2018-10-11T07:00:29.108Z,36.77
2018-10-11T07:02:57.394Z,36.27
2018-10-11T07:05:25.842Z,36.97
2018-10-11T07:07:54.143Z,36.50
2018-10-11T07:10:22.739Z,35.97
2018-10-11T07:12:51.106Z,36.03
2018-10-11T07:15:19.391Z,34.90
2018-10-11T07:17:47.878Z,35.53
2018-10-11T07:20:16.324Z,35.57
2018-10-11T07:22:45.080Z,36.23
2018-10-11T07:25:13.483Z,36.33
2018-10-11T07:27:43.395Z,33.47
2018-10-11T07:30:11.699Z,33.67
2018-10-11T07:32:40.138Z,33.07
2018-10-11T07:35:08.455Z,33.27
2018-10-11T07:37:36.697Z,28.70
2018-10-11T07:40:05.360Z,28.23
2018-10-11T07:42:33.623Z,27.73
2018-10-11T07:45:02.132Z,29.10
2018-10-11T07:47:30.636Z,28.87
2018-10-11T07:49:58.940Z,27.90
2018-10-11T07:52:27.534Z,28.37
2018-10-11T07:54:55.855Z,29.27
2018-10-11T07:57:24.232Z,31.03
2018-10-11T07:59:52.507Z,34.23
2018-10-11T08:02:20.788Z,30.07
2018-10-11T08:04:49.075Z,29.67
2018-10-11T08:07:17.573Z,28.77
2018-10-11T08:09:45.842Z,28.47
2018-10-11T08:12:14.452Z,29.50
2018-10-11T08:14:42.732Z,28.87
2018-10-11T08:17:11.377Z,29.13
2018-10-11T08:19:39.502Z,29.27
2018-10-11T08:22:07.798Z,28.23
2018-10-11T08:24:36.123Z,28.90
2018-10-11T08:27:04.583Z,27.83
2018-10-11T08:29:32.870Z,27.67
2018-10-11T08:32:01.160Z,26.87
2018-10-11T08:34:29.460Z,27.00
2018-10-11T08:36:57.771Z,27.43
2018-10-11T08:39:26.228Z,51.90
2018-10-11T08:41:54.468Z,27.77
2018-10-11T08:44:22.817Z,27.00
2018-10-11T08:46:51.218Z,26.27
2018-10-11T08:49:19.564Z,26.03
2018-10-11T08:51:48.060Z,26.83
2018-10-11T08:54:21.673Z,26.93
2018-10-11T08:56:49.917Z,25.47
2018-10-11T08:59:18.515Z,26.30
2018-10-11T09:01:46.730Z,26.27
2018-10-11T09:04:15.123Z,25.57
2018-10-11T09:06:43.367Z,25.10
2018-10-11T09:09:11.790Z,24.03
2018-10-11T09:11:40.162Z,22.60
2018-10-11T09:14:08.650Z,22.37
2018-10-11T09:16:37.124Z,22.57
2018-10-11T09:19:05.439Z,23.90
2018-10-11T09:21:33.747Z,24.33
2018-10-11T09:24:02.022Z,23.77
2018-10-11T09:26:30.368Z,23.87
2018-10-11T09:28:58.665Z,23.13
2018-10-11T09:31:26.988Z,22.30
2018-10-11T09:33:55.263Z,22.30
2018-10-11T09:36:23.676Z,20.70
2018-10-11T09:38:52.342Z,21.47
2018-10-11T09:41:20.669Z,21.30
2018-10-11T09:43:49.097Z,20.40
2018-10-11T09:46:17.654Z,20.03
2018-10-11T09:48:46.088Z,20.33
2018-10-11T09:51:14.298Z,20.20
2018-10-11T09:53:42.723Z,19.53
2018-10-11T09:56:11.030Z,18.87
2018-10-11T09:58:39.399Z,15.93
2018-10-11T10:01:12.984Z,13.97
2018-10-11T10:03:41.501Z,16.13
2018-10-11T10:06:09.913Z,15.17
2018-10-11T10:08:38.263Z,16.57
2018-10-11T10:11:06.653Z,16.10
2018-10-11T10:13:35.008Z,16.47
2018-10-11T10:16:03.296Z,15.83
2018-10-11T10:18:31.731Z,16.00
2018-10-11T10:21:00.090Z,16.43
2018-10-11T10:23:28.309Z,14.57
2018-10-11T10:25:56.615Z,15.03
2018-10-11T10:28:24.882Z,15.13
2018-10-11T10:30:54.654Z,13.60
2018-10-11T10:33:24.452Z,14.60
2018-10-11T10:35:53.140Z,14.75
2018-10-11T10:38:22.684Z,14.97
2018-10-11T10:40:51.099Z,15.07
2018-10-11T10:43:19.502Z,15.03
2018-10-11T10:45:47.744Z,14.40
2018-10-11T10:48:16.121Z,15.05
2018-10-11T10:50:44.402Z,13.13
2018-10-11T10:53:12.795Z,14.28
2018-10-11T10:55:41.214Z,14.20
2018-10-11T10:58:09.453Z,12.60
2018-10-11T11:00:37.854Z,13.03
2018-10-11T11:03:06.176Z,14.25
2018-10-11T11:05:34.494Z,13.15
2018-10-11T11:08:02.806Z,14.18
2018-10-11T11:10:31.163Z,13.83
2018-10-11T11:12:59.505Z,14.13
2018-10-11T11:15:27.874Z,14.33
2018-10-11T11:17:56.186Z,13.72
2018-10-11T11:20:24.856Z,14.23
2018-10-11T11:22:53.266Z,12.50
2018-10-11T11:25:22.021Z,12.30
2018-10-11T11:27:50.324Z,12.98
2018-10-11T11:30:18.617Z,13.48
2018-10-11T11:32:46.878Z,13.03
2018-10-11T11:35:15.972Z,12.23
2018-10-11T11:37:44.318Z,10.78
2018-10-11T11:40:12.611Z,11.45
2018-10-11T11:42:40.943Z,11.35
2018-10-11T11:45:09.311Z,11.00
2018-10-11T11:47:37.853Z,11.75
2018-10-11T11:50:06.268Z,9.93
2018-10-11T11:52:34.557Z,11.05
2018-10-11T11:55:02.941Z,11.28
2018-10-11T11:57:31.303Z,11.97
2018-10-11T11:59:59.646Z,11.53
2018-10-11T12:02:27.952Z,10.65
2018-10-11T12:04:56.283Z,11.45
2018-10-11T12:07:24.688Z,11.25
2018-10-11T12:09:52.949Z,8.85
2018-10-11T12:13:24.531Z,8.80
2018-10-11T12:15:52.961Z,9.60
2018-10-11T12:18:22.144Z,9.33
2018-10-11T12:20:50.446Z,10.30
2018-10-11T12:23:18.774Z,8.80
2018-10-11T12:25:47.177Z,8.68
2018-10-11T12:28:15.495Z,10.15
2018-10-11T12:30:43.953Z,10.00
2018-10-11T12:33:12.241Z,10.40
2018-10-11T12:35:40.714Z,8.50
2018-10-11T12:38:09.016Z,9.33
2018-10-11T12:40:37.470Z,9.33
2018-10-11T12:43:06.096Z,9.23
2018-10-11T12:45:34.435Z,8.70
2018-10-11T12:48:02.732Z,9.05
2018-10-11T12:50:31.150Z,10.15
2018-10-11T12:52:59.522Z,10.03
2018-10-11T12:55:27.774Z,8.45
2018-10-11T12:57:56.070Z,10.15
2018-10-11T13:00:24.361Z,11.25
2018-10-11T13:02:52.750Z,11.95
2018-10-11T13:05:20.935Z,9.15
2018-10-11T13:07:49.247Z,20.57
2018-10-11T13:10:17.611Z,9.70
2018-10-11T13:12:45.922Z,11.08
2018-10-11T13:15:14.346Z,8.80
2018-10-11T13:17:43.647Z,9.50
2018-10-11T13:20:11.082Z,9.08
2018-10-11T13:22:39.544Z,8.93
2018-10-11T13:25:08.008Z,10.48
2018-10-11T13:27:36.491Z,8.00
2018-10-11T13:30:04.869Z,8.10
2018-10-11T13:32:33.247Z,9.35
2018-10-11T13:35:01.785Z,8.38
2018-10-11T13:37:30.262Z,10.90
2018-10-11T13:39:58.800Z,8.23
2018-10-11T13:42:27.307Z,8.05
2018-10-11T13:44:55.795Z,8.65
2018-10-11T13:47:24.073Z,8.33
2018-10-11T13:49:52.412Z,8.25
2018-10-11T13:52:22.514Z,8.20
2018-10-11T13:54:49.135Z,7.92
2018-10-11T13:57:17.585Z,7.85
2018-10-11T13:59:45.888Z,8.28
2018-10-11T14:02:14.221Z,11.20
2018-10-11T14:04:42.619Z,17.27
2018-10-11T14:07:10.836Z,11.03
2018-10-11T14:09:39.290Z,9.33
2018-10-11T14:12:07.633Z,8.05
2018-10-11T14:14:36.050Z,7.92
2018-10-11T14:17:04.343Z,7.85
2018-10-11T14:19:32.629Z,7.30
2018-10-11T14:22:00.917Z,7.45
2018-10-11T14:24:29.180Z,7.22
2018-10-11T14:26:57.504Z,7.78
2018-10-11T14:29:25.969Z,7.12
2018-10-11T14:31:54.317Z,7.53
2018-10-11T14:34:22.612Z,7.08
2018-10-11T14:36:51.019Z,7.67
2018-10-11T14:39:19.259Z,6.70
2018-10-11T14:41:47.635Z,10.10
2018-10-11T14:44:15.951Z,8.88
2018-10-11T14:46:44.387Z,9.08
2018-10-11T14:49:12.750Z,10.80
2018-10-11T14:51:44.475Z,10.43
2018-10-11T14:54:10.431Z,7.90
2018-10-11T14:56:38.819Z,7.33
2018-10-11T14:59:07.084Z,7.33
2018-10-11T15:01:35.372Z,7.12
2018-10-11T15:04:03.644Z,6.80
2018-10-11T15:06:32.524Z,6.87
2018-10-11T15:09:00.835Z,6.70
2018-10-11T15:11:29.539Z,6.53
2018-10-11T15:13:57.710Z,7.05
2018-10-11T15:16:26.040Z,6.85
2018-10-11T15:18:54.285Z,7.20
2018-10-11T15:21:22.677Z,6.62
2018-10-11T15:23:50.982Z,6.97
2018-10-11T15:26:19.311Z,7.00
2018-10-11T15:28:47.673Z,6.70
2018-10-11T15:31:16.203Z,7.45
2018-10-11T15:33:44.450Z,6.55
2018-10-11T15:36:12.732Z,6.47
2018-10-11T15:38:41.033Z,6.67
2018-10-11T15:41:09.352Z,6.58
2018-10-11T15:43:37.915Z,6.58
2018-10-11T15:46:06.974Z,6.67
2018-10-11T15:48:35.228Z,7.00
2018-10-11T15:51:03.720Z,6.20
2018-10-11T15:53:32.162Z,7.12
2018-10-11T15:56:00.522Z,6.87
2018-10-11T15:58:28.876Z,7.05
2018-10-11T16:00:57.108Z,6.78
2018-10-11T16:03:25.673Z,7.17
2018-10-11T16:05:53.932Z,7.30
2018-10-11T16:08:22.212Z,7.45
2018-10-11T16:10:50.733Z,7.40
2018-10-11T16:13:19.121Z,7.75
2018-10-11T16:15:47.499Z,7.08
2018-10-11T16:18:15.881Z,6.33
2018-10-11T16:20:44.178Z,6.37
2018-10-11T16:23:12.511Z,6.83
2018-10-11T16:25:40.760Z,6.70
2018-10-11T16:28:09.312Z,7.70
2018-10-11T16:30:38.154Z,7.30
2018-10-11T16:33:06.861Z,6.80
2018-10-11T16:35:35.156Z,6.70
2018-10-11T16:38:03.495Z,7.27
2018-10-11T16:40:31.828Z,7.07
2018-10-11T16:43:00.240Z,6.90
2018-10-11T16:45:28.661Z,7.77
2018-10-11T16:47:57.097Z,7.20
2018-10-11T16:50:25.469Z,6.60
2018-10-11T16:52:53.837Z,6.40
2018-10-11T16:55:22.193Z,6.43
2018-10-11T16:57:50.513Z,7.03
2018-10-11T17:00:18.708Z,7.10
2018-10-11T17:02:47.254Z,7.57
2018-10-11T17:05:15.552Z,14.10
2018-10-11T17:07:43.908Z,7.77
2018-10-11T17:10:12.213Z,7.93
2018-10-11T17:12:40.574Z,7.20
2018-10-11T17:15:09.001Z,8.50
2018-10-11T17:17:37.326Z,8.73
2018-10-11T17:20:05.674Z,8.30
2018-10-11T17:22:34.146Z,8.00
2018-10-11T17:25:02.784Z,8.23
2018-10-11T17:27:31.456Z,7.50
2018-10-11T17:29:59.838Z,7.80
2018-10-11T17:32:28.228Z,6.70
2018-10-11T17:34:56.649Z,7.70
2018-10-11T17:37:24.952Z,8.13
2018-10-11T17:39:53.483Z,8.53
2018-10-11T17:42:21.862Z,8.63
2018-10-11T17:44:50.274Z,8.50
2018-10-11T17:47:18.612Z,9.37
2018-10-11T17:49:46.980Z,10.93
2018-10-11T17:52:16.090Z,9.43
2018-10-11T17:54:50.091Z,9.93
2018-10-11T17:57:18.719Z,10.30
2018-10-11T17:59:47.678Z,9.93
2018-10-11T18:02:16.763Z,10.07
2018-10-11T18:04:45.211Z,9.30
2018-10-11T18:07:14.037Z,9.57
2018-10-11T18:09:42.496Z,9.33
2018-10-11T18:12:10.930Z,9.83
2018-10-11T18:14:39.343Z,10.23
2018-10-11T18:17:08.187Z,9.77
2018-10-11T18:19:36.512Z,9.10
2018-10-11T18:22:05.056Z,8.90
2018-10-11T18:24:33.440Z,8.97
2018-10-11T18:27:02.082Z,9.33
2018-10-11T18:29:31.507Z,9.40
2018-10-11T18:32:01.568Z,9.20
2018-10-11T18:34:30.028Z,9.83
2018-10-11T18:36:58.386Z,10.00
2018-10-11T18:39:26.784Z,9.70
2018-10-11T18:41:55.094Z,9.50
2018-10-11T18:44:23.525Z,9.00
2018-10-11T18:46:51.807Z,11.60
2018-10-11T18:49:20.138Z,12.60
2018-10-11T18:51:48.467Z,11.30
2018-10-11T18:54:16.782Z,10.77
2018-10-11T18:56:45.133Z,10.83
2018-10-11T18:59:13.415Z,10.77
2018-10-11T19:01:41.652Z,12.67
2018-10-11T19:04:09.996Z,12.47
2018-10-11T19:06:38.551Z,11.57
2018-10-11T19:09:08.346Z,13.10
2018-10-11T19:11:37.103Z,11.60
2018-10-11T19:14:05.521Z,11.00
2018-10-11T19:16:33.955Z,11.03
2018-10-11T19:19:02.205Z,11.13
2018-10-11T19:21:31.362Z,11.00
2018-10-11T19:23:59.742Z,11.33
2018-10-11T19:26:28.350Z,11.80
2018-10-11T19:28:56.907Z,11.20
2018-10-11T19:31:25.264Z,10.73
2018-10-11T19:33:53.840Z,10.70
2018-10-11T19:36:22.258Z,10.33
2018-10-11T19:38:50.622Z,11.50
2018-10-11T19:41:18.981Z,11.37
2018-10-11T19:43:47.287Z,11.50
2018-10-11T19:46:15.732Z,10.77
2018-10-11T19:48:44.123Z,10.87
2018-10-11T19:51:12.591Z,11.47
2018-10-11T19:53:41.025Z,11.27
2018-10-11T19:56:09.441Z,10.83
2018-10-11T19:58:37.854Z,11.37
2018-10-11T20:01:06.212Z,10.57
2018-10-11T20:03:35.319Z,11.00
2018-10-11T20:06:03.715Z,11.00
2018-10-11T20:08:32.072Z,16.93
2018-10-11T20:11:00.341Z,17.77
2018-10-11T20:13:28.850Z,11.63
2018-10-11T20:15:57.428Z,10.50
2018-10-11T20:18:25.672Z,10.50
2018-10-11T20:20:54.068Z,12.20
2018-10-11T20:23:22.676Z,11.07
2018-10-11T20:25:51.048Z,11.67
2018-10-11T20:28:19.483Z,11.40
2018-10-11T20:30:47.772Z,11.73
2018-10-11T20:33:16.260Z,11.77
2018-10-11T20:35:44.540Z,11.73
2018-10-11T20:38:13.062Z,11.17
2018-10-11T20:40:41.672Z,11.73
2018-10-11T20:43:10.175Z,11.43
2018-10-11T20:45:38.783Z,12.13
2018-10-11T20:48:07.155Z,12.00
2018-10-11T20:50:35.595Z,12.80
2018-10-11T20:53:03.977Z,14.50
2018-10-11T20:55:32.408Z,13.03
2018-10-11T20:58:00.875Z,11.80
2018-10-11T21:00:29.430Z,12.43
2018-10-11T21:02:58.863Z,12.47
2018-10-11T21:05:27.376Z,12.57
2018-10-11T21:07:56.091Z,13.33
2018-10-11T21:10:24.966Z,12.40
2018-10-11T21:12:53.212Z,12.57
2018-10-11T21:15:21.681Z,12.43
2018-10-11T21:17:50.152Z,12.27
2018-10-11T21:20:18.731Z,13.00
2018-10-11T21:22:50.340Z,13.07
2018-10-11T21:25:18.768Z,12.47
2018-10-11T21:27:47.022Z,12.10
2018-10-11T21:30:15.536Z,13.40
2018-10-11T21:32:45.238Z,13.27
2018-10-11T21:35:13.628Z,12.73
2018-10-11T21:37:42.009Z,12.70
2018-10-11T21:40:10.472Z,13.27
2018-10-11T21:42:38.902Z,13.20
2018-10-11T21:45:07.212Z,13.30
2018-10-11T21:47:35.675Z,12.53
2018-10-11T21:50:04.298Z,12.77
2018-10-11T21:52:32.613Z,13.53
2018-10-11T21:55:00.927Z,13.37
2018-10-11T21:57:29.176Z,13.80
2018-10-11T21:59:57.534Z,14.00
2018-10-11T22:02:25.860Z,13.93
2018-10-11T22:04:54.114Z,14.20
2018-10-11T22:07:22.480Z,14.00
2018-10-11T22:09:50.799Z,14.03
2018-10-11T22:12:19.105Z,13.57
2018-10-11T22:14:47.528Z,13.70
2018-10-11T22:17:15.836Z,13.60
2018-10-11T22:19:44.267Z,13.07
2018-10-11T22:22:12.624Z,14.00
2018-10-11T22:24:41.032Z,14.00
2018-10-11T22:27:09.361Z,14.10
2018-10-11T22:29:37.813Z,14.13
2018-10-11T22:32:06.160Z,14.70
2018-10-11T22:34:34.466Z,14.33
2018-10-11T22:37:03.222Z,13.70
2018-10-11T22:39:31.642Z,13.40
2018-10-11T22:41:59.967Z,13.23
2018-10-11T22:44:28.491Z,13.10
2018-10-11T22:46:56.851Z,13.70
2018-10-11T22:49:25.170Z,12.80
2018-10-11T22:51:53.469Z,12.33
2018-10-11T22:54:21.783Z,12.33
2018-10-11T22:56:50.202Z,12.60
2018-10-11T22:59:18.508Z,12.30
2018-10-11T23:01:47.151Z,12.43
2018-10-11T23:04:15.476Z,11.80
2018-10-11T23:06:44.472Z,12.67
2018-10-11T23:09:12.750Z,11.80
2018-10-11T23:11:41.173Z,12.80
2018-10-11T23:14:09.561Z,13.00
2018-10-11T23:16:38.049Z,12.00
2018-10-11T23:19:06.432Z,12.07
2018-10-11T23:21:35.810Z,12.50
2018-10-11T23:24:04.113Z,12.07
2018-10-11T23:26:32.388Z,12.00
2018-10-11T23:29:00.828Z,12.67
2018-10-11T23:31:29.146Z,12.03
2018-10-11T23:33:57.965Z,11.10
2018-10-11T23:36:26.294Z,11.83
2018-10-11T23:38:54.596Z,12.40
2018-10-11T23:41:22.891Z,12.20
2018-10-11T23:43:51.347Z,12.07
2018-10-11T23:46:19.612Z,11.83
2018-10-11T23:48:47.924Z,12.30
2018-10-11T23:51:16.189Z,12.13
2018-10-11T23:53:44.492Z,12.20
2018-10-11T23:56:13.242Z,12.47
2018-10-11T23:58:41.561Z,12.93
